52VA weather

Ibm Building 250 Heliport
Manassas, Virginia, United States

Public forecast

Using degrees Fahrenheit for public forecast. Weather courtesy of forecast.io.

METAR (pilot weather report)

Closest report is Manassas Regional Airport/Harry P. Davis Field, 2.3 nm (4.3 km) S. Retrieved 2019/05/23 02:56 UTC (19 minutes ago):

KHEF 230256Z AUTO 16006KT 10SM BKN095 17/11 A3025 RMK AO2 SLP253 6//// T01670111 50005 PNO $

TAF (pilot weather forecast)

Forecast is more than 12 hours old.

Closest forecast is Washington Dulles International Airport, 11.3 nm (21.0 km) NNE. Retrieved 2019/05/22 00:39 UTC (1 day ago):

TAF KIAD 222337Z 2300/2406 17006KT P6SM SCT080 BKN250 FM230800 18008KT P6SM VCSH BKN050 FM231500 20008G16KT P6SM SCT050 BKN200 FM231800 21009G17KT P6SM VCTS BKN050CB FM232100 23010G18KT P6SM BKN050 FM240000 27008KT P6SM SCT060